Shempston Farm Airstrip

GB-0746 · Scotland, United Kingdom

METAR history GB-0746 · Shempston Farm Airstrip

Below you see METARs of the last few days. Select a year to browse through older METARs, from the year 2007 onwards.

December 6, 2022

Time Code Weather Temp. Visibility Ceiling Wind METAR/SPECI
13:20
V
6 °C 10 km+ - 360° 360° 18 kt SPECI EGQS 061320Z 36018KT 9999 FEW022 SCT055 06/00 Q1028 NOSIG RMK BLU BLU
13:20
V
6 °C 10 km+ - 360° 360° 18 kt METAR EGQS 061320Z 36018KT 9999 FEW022 SCT055 06/00 Q1028 NOSIG RMK BLU BLU
12:50
V
6 °C 10 km+ - 360° 360° 17 kt METAR EGQS 061250Z 36017KT 9999 FEW022 SCT055 06/01 Q1029 NOSIG RMK BLU BLU
12:20
V
6 °C 10 km+ 5,500 ft 350° 350° 18 kt METAR EGQS 061220Z 35018KT 9999 FEW025 BKN055 06/01 Q1029 TEMPO 7000 -SHRA SCT022 RMK BLU TEMPO WHT
11:50
V
6 °C 10 km+ - 360° 360° 16 kt METAR EGQS 061150Z 36016KT 9999 FEW018 SCT025 06/01 Q1029 TEMPO 7000 -SHRA SCT022 RMK BLU TEMPO WHT
11:20
V
6 °C 10 km+ - 350° 350° 17 kt METAR EGQS 061120Z 35017KT 9999 FEW018 SCT056 06/01 Q1029 TEMPO 7000 -SHRA SCT022 RMK BLU TEMPO WHT
10:50
V
6 °C 10 km+ 5,600 ft 350° 350° 18 kt METAR EGQS 061050Z 35018KT 9999 FEW018 BKN056 06/02 Q1029 TEMPO 7000 -SHRA SCT022 RMK BLU TEMPO WHT
10:20
V
6 °C 10 km+ 5,800 ft 360° 360° 18 kt METAR EGQS 061020Z 36018KT 9999 FEW019 SCT028 BKN058 06/02 Q1029 TEMPO 7000 -SHRA SCT022 RMK BLU TEMPO WHT
09:50
V
6 °C 10 km+ 5,800 ft 350° 350° 17 kt METAR EGQS 060950Z 35017KT 9999 FEW022 SCT030 BKN058 06/01 Q1029 TEMPO 7000 SHRA SCT024 RMK BLU TEMPO WHT
09:20
V
6 °C 10 km+ 5,800 ft 010° 010° 17 kt METAR EGQS 060920Z 01017KT 9999 FEW022 SCT028 BKN058 06/01 Q1029 TEMPO 7000 SHRA SCT024 RMK BLU TEMPO WHT
08:50
V
6 °C 10 km+ 6,000 ft 010° 010° 17 kt METAR EGQS 060850Z 01017KT 9999 FEW022 BKN060 06/01 Q1029 TEMPO 7000 -SHRA SCT022 RMK BLU TEMPO BLU
08:20
V
6 °C 10 km+ 6,000 ft 360° 360° 19 kt METAR EGQS 060820Z 36019KT 9999 FEW035 BKN060 06/00 Q1029 TEMPO 7000 -SHRA SCT022 RMK BLU TEMPO WHT
07:50
V
6 °C 10 km+ 5,500 ft 360° 360° 19 kt METAR EGQS 060750Z 36019KT 9999 FEW025 BKN055 06/M00 Q1029 TEMPO 7000 -SHRA SCT022 RMK BLU TEMPO WHT
07:20
V
6 °C 10 km+ 5,600 ft 010° 010° 21 kt METAR EGQS 060720Z AUTO 01021KT 9999 OVC056/// 06/M00 Q1029
06:50
V
6 °C 10 km+ 6,000 ft 360° 360° 22 kt METAR EGQS 060650Z 36022KT 9999 FEW024 OVC060 06/02 Q1029 RMK BLU
05:50
V
6 °C 10 km+ 6,000 ft 360° 360° 18 kt METAR EGQS 060550Z 36018KT 9999 FEW020 OVC060 06/02 Q1029 RMK BLU
04:50
V
6 °C 10 km+ 6,000 ft 350° 350° 15 kt METAR EGQS 060450Z 35015KT 9999 FEW023 OVC060 06/02 Q1029 RMK BLU
03:50
V
6 °C 10 km+ - 350° 350° 16 kt METAR EGQS 060350Z 35016KT CAVOK 06/02 Q1029 RMK BLU
02:50
V
6 °C 10 km+ - 350° 350° 16 kt METAR EGQS 060250Z 35016KT CAVOK 06/02 Q1029 RMK BLU
01:50
V
6 °C 10 km+ 5,100 ft 350° 350° 16 kt METAR EGQS 060150Z 35016KT 9999 FEW029 BKN051 06/02 Q1030 RMK BLU
00:50
V
6 °C 10 km+ 5,000 ft 360° 360° 13 kt METAR EGQS 060050Z 36013KT 9999 FEW022 BKN050 06/02 Q1030 RMK BLU

December 5, 2022

Time Code Weather Temp. Visibility Ceiling Wind METAR/SPECI
22:50
V
5 °C 10 km+ 4,200 ft 320° 320° 9 kt METAR EGQS 052250Z 32009KT 9999 FEW009 SCT018 BKN042 05/04 Q1031 RERA RMK WHT
21:50
M
6 °C 10 km+ 1,400 ft 300° 300° 10 kt METAR EGQS 052150Z 30010KT 9999 -SHRA FEW009 BKN014 OVC015 06/04 Q1031 RMK GRN
20:50
V
6 °C 10 km+ 3,000 ft 330° 330° 8 kt METAR EGQS 052050Z 33008KT 9999 FEW025 BKN030 06/03 Q1031 RMK BLU
19:50
V
5 °C 10 km+ - 340° 340° 9 kt METAR EGQS 051950Z 34009KT 9999 FEW019 SCT042 05/03 Q1032 RMK BLU
18:50
V
6 °C 10 km+ 4,200 ft 010° 010° 12 kt METAR EGQS 051850Z 01012KT 9999 FEW026 BKN042 06/02 Q1032 RMK BLU
18:20
V
7 °C 10 km+ 3,500 ft 010° 010° 6 kt METAR EGQS 051820Z 01006KT 9999 FEW022 BKN035 07/02 Q1032 RMK BLU
17:50
V
6 °C 10 km+ 3,800 ft 340° 340° 8 kt METAR EGQS 051750Z 34008KT 9999 FEW022 BKN038 06/03 Q1032 TEMPO SCT024 RMK BLU TEMPO WHT
17:20
V
6 °C 10 km+ 3,200 ft 310° 310° 8 kt METAR EGQS 051720Z 31008KT 9999 FEW021 BKN032 06/04 Q1032 TEMPO SCT024 RMK BLU TEMPO WHT
16:50
V
6 °C 10 km+ 3,700 ft 330° 330° 7 kt METAR EGQS 051650Z 33007KT 9999 FEW012 SCT020 BKN037 06/03 Q1032 TEMPO FEW020 RMK WHT TEMPO BLU
16:20
V
6 °C 10 km+ 3,500 ft 300° 300° 9 kt METAR EGQS 051620Z 30009KT 9999 -SHRA FEW012 SCT020 BKN035 06/04 Q1032 TEMPO FEW020 RMK WHT TEMPO BLU
15:50
V
6 °C 10 km+ 3,500 ft 270° 270° 6 kt METAR EGQS 051550Z 27006KT 9999 -SHRA FEW012 SCT020 BKN035 06/03 Q1032 TEMPO FEW020 RMK WHT TEMPO BLU
15:20
V
6 °C 10 km+ 3,800 ft 260° 260° 6 kt METAR EGQS 051520Z 26006KT 9999 FEW023 BKN038 06/03 Q1032 TEMPO SCT023 RMK BLU TEMPO WHT
14:50
V
5 °C 10 km+ 3,000 ft 240° 240° 5 kt METAR EGQS 051450Z 24005KT 9999 FEW011 BKN030 05/04 Q1032 TEMPO SCT020 RMK BLU TEMPO WHT
14:20
V
6 °C 10 km+ 3,200 ft 310° 310° 5 kt METAR EGQS 051420Z 31005KT 9999 FEW011 SCT020 BKN032 06/03 Q1032 TEMPO FEW020 RMK WHT TEMPO BLU
13:50
M
6 °C 10 km+ 1,900 ft 290° 290° 9 kt METAR EGQS 051350Z 29009KT 9999 -SHRA FEW011 BKN019 06/04 Q1033 TEMPO FEW019 RMK WHT TEMPO BLU
13:39
M
6 °C 10 km+ 2,100 ft 290° 290° 9 kt METAR EGQS 051339Z 29009KT 9999 -SHRA FEW011 BKN021 06/03 Q1033 TEMPO FEW021 RMK WHT TEMPO BLU
13:20
V
6 °C 10 km+ 3,700 ft 270° 270° 7 kt METAR EGQS 051320Z 27007KT 9999 FEW013 SCT025 BKN037 06/05 Q1033 TEMPO SCT024 RMK BLU TEMPO WHT
12:50
V
3 °C 10 km+ 3,700 ft 230° 230° 6 kt METAR EGQS 051250Z 23006KT 9999 FEW013 SCT025 BKN037 03/02 Q1033 TEMPO SCT024 RMK BLU TEMPO WHT
12:37
V
3 °C 10 km+ - 220° 220° 7 kt METAR EGQS 051237Z 22007KT 9999 FEW017 SCT026 03/02 Q1033 TEMPO SCT021 RMK BLU TEMPO WHT
12:28
V
3 °C 10 km+ 4,000 ft 220° 220° 8 kt METAR EGQS 051228Z 22008KT 9999 FEW013 SCT021 BKN040 03/03 Q1033 TEMPO FEW021 RMK WHT TEMPO BLU
12:20
M
3 °C 10 km+ 2,500 ft 230° 230° 7 kt METAR EGQS 051220Z 23007KT 9999 FEW013 BKN025 03/03 Q1033 TEMPO SCT024 RMK BLU TEMPO WHT
11:50
V
3 °C 10 km+ 3,200 ft 240° 240° 6 kt METAR EGQS 051150Z 24006KT 9999 FEW022 BKN032 03/02 Q1033 NOSIG RMK BLU BLU
11:20
V
2 °C 10 km+ 3,500 ft 230° 230° 7 kt METAR EGQS 051120Z 23007KT 9999 FEW025 BKN035 02/02 Q1034 NOSIG RMK BLU BLU
10:50
V
2 °C 10 km+ 3,800 ft 230° 230° 7 kt METAR EGQS 051050Z 23007KT 9999 FEW025 BKN038 02/01 Q1034 NOSIG RMK BLU BLU
10:20
V
2 °C 10 km+ - 240° 240° 7 kt METAR EGQS 051020Z 24007KT 9999 FEW025 SCT045 02/01 Q1034 NOSIG RMK BLU BLU
09:50
V
1 °C 10 km+ - 240° 240° 7 kt METAR EGQS 050950Z 24007KT 9999 FEW022 SCT045 01/00 Q1034 NOSIG RMK BLU BLU
09:20
V
1 °C 10 km+ 4,000 ft 220° 220° 6 kt METAR EGQS 050920Z 22006KT 9999 FEW022 BKN040 01/01 Q1034 NOSIG RMK BLU BLU
08:50
V
1 °C 10 km+ 3,700 ft 220° 220° 7 kt METAR EGQS 050850Z 22007KT 9999 FEW022 BKN037 01/01 Q1033 NOSIG RMK BLU BLU
07:50
V
0 °C 10 km+ 3,800 ft 230° 230° 5 kt METAR EGQS 050750Z 23005KT 9999 BKN038 M00/M00 Q1033 NOSIG RMK BLU BLU
06:50
V
0 °C 10 km+ 3,100 ft 220° 220° 4 kt METAR EGQS 050650Z 22004KT 9999 FEW025 BKN031 M00/M00 Q1033 NOSIG RMK BLU BLU
05:50
V
0 °C 10 km+ 4,900 ft 200° 200° 3 kt METAR EGQS 050550Z 20003KT 9999 FEW030 BKN049 00/00 Q1033 RMK BLU
04:50
V
1 °C 10 km+ - 220° 220° 2 kt METAR EGQS 050450Z 22002KT 9999 FEW020 01/00 Q1032 RMK BLU
03:50
V
1 °C 10 km+ 3,800 ft Var 000° 0 kt METAR EGQS 050350Z 00000KT 9999 -SHRA FEW024 BKN038 01/01 Q1032 RMK BLU
02:50
V
0 °C 10 km+ 3,700 ft 210° 210° 2 kt METAR EGQS 050250Z 21002KT 9999 SCT023 BKN037 00/M00 Q1032 RMK WHT
02:20
V
1 °C 10 km+ - 170° 170° 2 kt METAR EGQS 050220Z AUTO 17002KT 9999 // FEW045/// 01/M00 Q1032
01:50
V
2 °C 10 km+ - 140° 140° 5 kt METAR EGQS 050150Z 14005KT 9999 FEW023 SCT042 02/01 Q1032 RMK BLU
00:50
V
2 °C 10 km+ - 140° 140° 3 kt METAR EGQS 050050Z 14003KT 9999 FEW020 SCT039 02/01 Q1032 RMK BLU

December 4, 2022

Time Code Weather Temp. Visibility Ceiling Wind METAR/SPECI
23:50
M
1 °C 10 km+ 2,400 ft 180° 180° 3 kt METAR EGQS 042350Z 18003KT 9999 -RA FEW019 BKN024 01/00 Q1032 RMK WHT
22:50
V
4 °C 10 km+ - 100° 100° 7 kt METAR EGQS 042250Z 10007KT 9999 FEW017 SCT035 04/03 Q1031 RMK BLU
21:50
V
2 °C 10 km+ - 100° 100° 2 kt METAR EGQS 042150Z 10002KT 9999 FEW017 SCT035 02/01 Q1031 RMK BLU
20:50
V
1 °C 10 km+ - 140° 140° 4 kt METAR EGQS 042050Z 14004KT 9999 FEW025 01/M00 Q1031 RMK BLU
19:50
V
2 °C 10 km+ - 140° 140° 6 kt METAR EGQS 041950Z 14006KT 9999 FEW025 02/01 Q1031 NOSIG RMK BLU BLU
19:20
V
1 °C 10 km+ - 160° 160° 4 kt METAR EGQS 041920Z 16004KT 9999 FEW030 01/M01 Q1031 NOSIG RMK BLU BLU
18:50
V
4 °C 10 km+ - 100° 100° 5 kt METAR EGQS 041850Z 10005KT 9999 FEW027 04/02 Q1030 NOSIG RMK BLU BLU
18:20
V
4 °C 10 km+ - 120° 120° 6 kt METAR EGQS 041820Z 12006KT 9999 FEW030 SCT054 04/02 Q1030 NOSIG RMK BLU BLU
17:50
V
4 °C 10 km+ - 110° 110° 8 kt METAR EGQS 041750Z 11008KT 9999 FEW030 04/02 Q1030 NOSIG RMK BLU BLU
17:20
V
5 °C 10 km+ - 110° 110° 9 kt METAR EGQS 041720Z 11009KT 9999 FEW030 05/02 Q1030 NOSIG RMK BLU BLU
16:50
V
5 °C 10 km+ - 110° 110° 9 kt METAR EGQS 041650Z 11009KT 9999 SCT030 05/02 Q1030 TEMPO SCT024 RMK BLU TEMPO WHT
15:50
V
5 °C 10 km+ - 110° 110° 7 kt METAR EGQS 041550Z 11007KT 9999 FEW018 SCT054 05/02 Q1029 TEMPO SCT018 RMK BLU TEMPO WHT
14:50
V
5 °C 10 km+ - 110° 110° 9 kt METAR EGQS 041450Z 11009KT 9999 FEW018 05/03 Q1029 TEMPO SCT018 RMK BLU TEMPO WHT
13:50
V
6 °C 10 km+ 5,500 ft 110° 110° 7 kt METAR EGQS 041350Z 11007KT 9999 FEW018 BKN055 06/03 Q1029 TEMPO SCT018 RMK BLU TEMPO WHT
13:20
V
6 °C 10 km+ 6,000 ft 100° 100° 8 kt METAR EGQS 041320Z 10008KT 9999 FEW018 BKN060 06/03 Q1029 TEMPO SCT018 RMK BLU TEMPO WHT
12:50
V
6 °C 10 km+ 6,000 ft 110° 110° 7 kt METAR EGQS 041250Z 11007KT 9999 FEW023 SCT038 BKN060 06/03 Q1029 TEMPO SCT023 RMK BLU TEMPO WHT
12:20
V
6 °C 10 km+ 3,700 ft 120° 120° 6 kt METAR EGQS 041220Z 12006KT 9999 -SHRA FEW017 BKN037 06/03 Q1029 TEMPO SCT017 RMK BLU TEMPO WHT
11:50
V
6 °C 10 km+ - 160° 160° 4 kt METAR EGQS 041150Z 16004KT 9999 FEW017 SCT035 06/03 Q1029 TEMPO SCT017 RMK BLU
11:20
V
5 °C 10 km+ - 090° 090° 5 kt METAR EGQS 041120Z 09005KT 9999 FEW024 SCT056 05/04 Q1029 TEMPO SCT017 RMK BLU TEMPO WHT
10:59
V
3 °C 10 km+ - 130° 130° 3 kt METAR EGQS 041059Z 13003KT 9999 -SHRA SCT017 SCT037 03/02 Q1029 TEMPO FEW017 RMK WHT TEMPO BLU
10:50
V
2 °C 10 km+ - 140° 140° 4 kt METAR EGQS 041050Z 14004KT 9999 FEW024 SCT037 02/01 Q1029 TEMPO 7000 SCT024 RMK BLU TEMPO WHT
10:20
V
2 °C 10 km+ 6,000 ft 140° 140° 4 kt METAR EGQS 041020Z 14004KT 9999 FEW024 BKN060 02/01 Q1029 TEMPO SCT024 RMK BLU TEMPO WHT
10:00
V
1 °C 10 km+ - 130° 130° 2 kt METAR EGQS 041000Z 13002KT 9999 FEW024 SCT052 01/01 Q1029 TEMPO SCT024 RMK BLU TEMPO WHT
09:50
V
2 °C 10 km+ 3,700 ft 160° 160° 2 kt METAR EGQS 040950Z 16002KT 9999 FEW021 SCT024 BKN037 02/01 Q1029 TEMPO FEW024 RMK WHT TEMPO BLU

We and third parties follow your internet behavior on our website with cookies. If you continue, we assume you agree with our cookie policy.